createdAt,value
2022-08-23T00:01:35.933Z,21.50
2022-08-23T00:04:07.597Z,21.50
2022-08-23T00:06:35.075Z,21.40
2022-08-23T00:09:02.740Z,21.30
2022-08-23T00:11:39.844Z,21.30
2022-08-23T00:14:34.273Z,21.20
2022-08-23T00:17:03.594Z,21.20
2022-08-23T00:19:30.639Z,21.20
2022-08-23T00:21:58.109Z,21.30
2022-08-23T00:24:27.605Z,21.30
2022-08-23T00:27:11.542Z,21.20
2022-08-23T00:29:40.788Z,21.20
2022-08-23T00:32:10.774Z,21.10
2022-08-23T00:34:39.078Z,21.00
2022-08-23T00:37:07.608Z,21.10
2022-08-23T00:39:34.983Z,21.10
2022-08-23T00:42:55.871Z,21.10
2022-08-23T00:45:57.662Z,21.10
2022-08-23T00:48:24.972Z,21.00
2022-08-23T00:51:16.151Z,20.90
2022-08-23T00:53:53.686Z,21.00
2022-08-23T00:56:24.460Z,21.00
2022-08-23T00:58:52.562Z,21.00
2022-08-23T01:01:19.618Z,20.90
2022-08-23T01:04:04.488Z,21.00
2022-08-23T01:06:44.090Z,21.00
2022-08-23T01:09:18.108Z,21.00
2022-08-23T01:12:10.928Z,20.90
2022-08-23T01:14:51.094Z,20.80
2022-08-23T01:17:20.956Z,20.80
2022-08-23T01:20:00.736Z,20.80
2022-08-23T01:22:34.697Z,20.90
2022-08-23T01:25:07.618Z,20.90
2022-08-23T01:27:41.668Z,20.80
2022-08-23T01:30:15.292Z,20.90
2022-08-23T01:32:50.289Z,20.80
2022-08-23T01:37:51.373Z,20.80
2022-08-23T01:40:18.481Z,20.90
2022-08-23T01:42:45.501Z,20.90
2022-08-23T01:45:14.684Z,20.90
2022-08-23T01:47:42.715Z,20.70
2022-08-23T01:50:12.839Z,20.70
2022-08-23T01:52:46.693Z,20.70
2022-08-23T01:55:16.633Z,20.80
2022-08-23T01:57:48.340Z,20.70
2022-08-23T02:00:19.212Z,20.70
2022-08-23T02:02:47.146Z,20.80
2022-08-23T02:05:18.908Z,20.80
2022-08-23T02:07:47.720Z,20.80
2022-08-23T02:10:17.017Z,20.80
2022-08-23T02:12:44.573Z,20.80
2022-08-23T02:15:16.572Z,20.70
2022-08-23T02:17:47.132Z,20.70
2022-08-23T02:20:14.391Z,20.70
2022-08-23T02:22:42.453Z,20.70
2022-08-23T02:25:09.873Z,20.70
2022-08-23T02:27:36.805Z,20.50
2022-08-23T02:34:19.911Z,20.30
2022-08-23T02:36:47.985Z,20.30
2022-08-23T02:39:16.618Z,20.40
2022-08-23T02:41:44.241Z,20.20
2022-08-23T02:44:11.780Z,20.10
2022-08-23T02:46:41.683Z,20.10
2022-08-23T02:49:09.304Z,20.20
2022-08-23T02:51:38.533Z,20.30
2022-08-23T02:54:06.472Z,20.30
2022-08-23T02:56:34.041Z,20.20
2022-08-23T02:59:01.072Z,20.20
2022-08-23T03:01:32.223Z,20.20
2022-08-23T03:04:10.409Z,20.30
2022-08-23T03:06:38.577Z,20.30
2022-08-23T03:09:07.184Z,20.40
2022-08-23T03:11:35.010Z,20.40
2022-08-23T03:14:02.189Z,20.40
2022-08-23T03:16:30.481Z,20.40
2022-08-23T03:18:57.577Z,20.20
2022-08-23T03:21:24.648Z,20.20
2022-08-23T03:23:52.174Z,20.10
2022-08-23T03:26:20.951Z,20.10
2022-08-23T03:28:48.237Z,20.00
2022-08-23T03:31:16.372Z,19.90
2022-08-23T03:33:56.890Z,20.00
2022-08-23T03:36:28.333Z,20.10
2022-08-23T03:38:57.111Z,20.00
2022-08-23T03:41:25.213Z,19.90
2022-08-23T03:43:52.840Z,19.90
2022-08-23T03:46:23.738Z,19.90
2022-08-23T03:48:59.838Z,20.00
2022-08-23T03:51:31.034Z,19.90
2022-08-23T03:54:00.816Z,19.90
2022-08-23T03:56:36.462Z,19.90
2022-08-23T03:59:08.734Z,19.90
2022-08-23T04:01:36.591Z,19.90
2022-08-23T04:04:04.425Z,19.90
2022-08-23T04:06:33.094Z,19.80
2022-08-23T04:09:00.590Z,19.70
2022-08-23T04:11:27.916Z,19.80
2022-08-23T04:14:04.025Z,19.70
2022-08-23T04:16:33.447Z,19.70
2022-08-23T04:19:00.815Z,19.60
2022-08-23T04:21:32.032Z,19.60
2022-08-23T04:23:59.085Z,19.60
2022-08-23T04:26:30.085Z,19.50
2022-08-23T04:28:57.427Z,19.70
2022-08-23T04:31:26.566Z,19.70
2022-08-23T04:33:56.525Z,19.70
2022-08-23T04:36:24.184Z,19.60
2022-08-23T04:38:52.411Z,19.50
2022-08-23T04:41:37.992Z,19.50
2022-08-23T04:44:05.623Z,19.70
2022-08-23T04:46:33.565Z,19.60
2022-08-23T04:49:02.210Z,19.70
2022-08-23T04:51:29.607Z,19.70
2022-08-23T04:53:56.915Z,19.70
2022-08-23T04:56:41.870Z,19.70
2022-08-23T04:59:10.406Z,19.60
2022-08-23T05:01:43.509Z,19.70
2022-08-23T05:04:11.517Z,19.90
2022-08-23T05:06:40.116Z,19.90
2022-08-23T05:09:07.007Z,19.80
2022-08-23T05:11:35.680Z,19.70
2022-08-23T05:14:02.756Z,19.80
2022-08-23T05:16:30.439Z,19.70
2022-08-23T05:19:02.991Z,19.90
2022-08-23T05:21:32.597Z,20.10
2022-08-23T05:24:00.916Z,20.10
2022-08-23T05:26:31.017Z,20.20
2022-08-23T05:28:58.050Z,20.10
2022-08-23T05:31:31.120Z,20.30
2022-08-23T05:34:01.158Z,20.40
2022-08-23T05:36:50.223Z,20.30
2022-08-23T05:39:36.471Z,20.50
2022-08-23T05:42:12.662Z,20.60
2022-08-23T05:44:39.637Z,20.80
2022-08-23T05:47:11.190Z,20.80
2022-08-23T05:49:48.121Z,20.70
2022-08-23T05:52:15.467Z,20.70
2022-08-23T05:54:43.982Z,20.80
2022-08-23T05:57:25.673Z,21.00
2022-08-23T05:59:52.589Z,21.30
2022-08-23T06:02:19.643Z,21.20
2022-08-23T06:04:46.625Z,21.20
2022-08-23T06:07:14.156Z,21.40
2022-08-23T06:09:41.100Z,21.50
2022-08-23T06:12:09.960Z,21.50
2022-08-23T06:14:38.597Z,21.60
2022-08-23T06:17:05.747Z,21.80
2022-08-23T06:19:33.544Z,24.00
2022-08-23T06:22:38.513Z,23.90
2022-08-23T06:25:09.481Z,23.20
2022-08-23T06:27:47.187Z,23.60
2022-08-23T06:30:14.428Z,24.10
2022-08-23T06:32:45.340Z,26.20
2022-08-23T06:35:44.696Z,30.50
2022-08-23T06:38:18.432Z,33.80
2022-08-23T06:40:45.490Z,35.10
2022-08-23T06:43:27.649Z,35.60
2022-08-23T06:46:16.642Z,36.10
2022-08-23T06:48:45.409Z,36.10
2022-08-23T06:51:34.281Z,36.10
2022-08-23T06:54:20.202Z,37.00
2022-08-23T06:57:13.489Z,37.40
2022-08-23T06:59:59.161Z,37.50
2022-08-23T07:02:55.443Z,37.40
2022-08-23T07:05:41.226Z,37.80
2022-08-23T07:08:29.136Z,37.70
2022-08-23T07:10:57.087Z,37.10
2022-08-23T07:13:24.015Z,37.10
2022-08-23T07:15:50.999Z,36.70
2022-08-23T07:18:21.001Z,37.30
2022-08-23T07:20:49.152Z,37.40
2022-08-23T07:23:17.340Z,37.30
2022-08-23T07:25:44.496Z,37.20
2022-08-23T07:28:15.650Z,37.40
2022-08-23T07:30:45.292Z,36.40
2022-08-23T07:33:16.326Z,36.50
2022-08-23T07:36:06.918Z,36.10
2022-08-23T07:38:35.239Z,35.90
2022-08-23T07:41:03.754Z,35.40
2022-08-23T07:43:34.543Z,33.40
2022-08-23T07:46:04.304Z,31.40
2022-08-23T07:48:53.120Z,29.70
2022-08-23T07:51:23.166Z,28.70
2022-08-23T07:53:50.265Z,28.50
2022-08-23T07:56:20.909Z,28.10
2022-08-23T07:59:04.744Z,28.20
2022-08-23T08:02:10.144Z,28.30
2022-08-23T08:04:37.582Z,28.20
2022-08-23T08:07:18.219Z,28.10
2022-08-23T08:09:52.430Z,27.90
2022-08-23T08:12:19.638Z,27.90
2022-08-23T08:14:49.393Z,27.80
2022-08-23T08:17:18.483Z,27.80
2022-08-23T08:20:19.981Z,28.10
2022-08-23T08:23:24.888Z,27.90
2022-08-23T08:26:11.417Z,28.10
2022-08-23T08:28:46.702Z,28.10
2022-08-23T08:31:13.747Z,28.40
2022-08-23T08:33:41.062Z,28.30
2022-08-23T08:36:42.513Z,28.30
2022-08-23T08:39:19.741Z,28.40
2022-08-23T08:42:13.354Z,28.50
2022-08-23T08:44:56.687Z,28.40
2022-08-23T08:47:37.427Z,28.40
2022-08-23T08:50:24.281Z,28.30
2022-08-23T08:53:01.832Z,28.80
2022-08-23T08:55:55.323Z,28.60
2022-08-23T08:58:50.911Z,28.60
2022-08-23T09:01:21.703Z,28.50
2022-08-23T09:03:52.266Z,28.50
2022-08-23T09:06:25.646Z,28.70
2022-08-23T09:09:13.428Z,28.60
2022-08-23T09:11:55.305Z,28.80
2022-08-23T09:14:38.479Z,28.70
2022-08-23T09:17:27.397Z,29.00
2022-08-23T09:20:00.280Z,28.90
2022-08-23T09:22:44.304Z,28.90
2022-08-23T09:29:53.108Z,29.20
2022-08-23T09:32:43.151Z,29.10
2022-08-23T09:35:25.726Z,29.20
2022-08-23T09:38:21.608Z,29.10
2022-08-23T09:40:54.839Z,29.40
2022-08-23T09:43:26.191Z,29.60
2022-08-23T09:45:59.338Z,29.90
2022-08-23T09:48:45.007Z,29.40
2022-08-23T09:51:26.764Z,29.40
2022-08-23T09:54:30.061Z,29.60
2022-08-23T09:57:02.581Z,29.60
2022-08-23T09:59:44.717Z,30.00
2022-08-23T10:02:29.673Z,30.00
2022-08-23T10:05:02.970Z,30.40
2022-08-23T10:07:42.498Z,30.50
2022-08-23T10:10:28.698Z,30.00
2022-08-23T10:13:00.519Z,29.80
2022-08-23T10:16:01.881Z,29.80
2022-08-23T10:18:45.665Z,30.00
2022-08-23T10:21:31.423Z,30.10
2022-08-23T10:24:17.380Z,30.40
2022-08-23T10:27:41.343Z,30.30
2022-08-23T10:30:22.512Z,30.00
2022-08-23T10:33:04.722Z,30.30
2022-08-23T10:35:38.177Z,30.10
2022-08-23T10:38:33.834Z,30.30
2022-08-23T10:41:49.588Z,30.60
2022-08-23T10:44:33.636Z,30.50
2022-08-23T10:47:01.034Z,30.80
2022-08-23T10:49:29.170Z,30.50
2022-08-23T10:51:58.018Z,30.90
2022-08-23T10:54:35.886Z,30.50
2022-08-23T10:57:07.965Z,30.90
2022-08-23T11:04:01.522Z,30.80
2022-08-23T11:06:35.338Z,31.00
2022-08-23T11:09:07.872Z,31.30
2022-08-23T11:11:46.854Z,31.00
2022-08-23T11:14:38.028Z,31.20
2022-08-23T11:17:09.178Z,31.30
2022-08-23T11:19:59.239Z,31.40
2022-08-23T11:22:34.528Z,31.40
2022-08-23T11:25:06.847Z,31.40
2022-08-23T11:27:42.219Z,31.40
2022-08-23T11:30:34.883Z,31.60
2022-08-23T11:33:11.315Z,31.50
2022-08-23T11:35:46.481Z,31.50
2022-08-23T11:38:17.295Z,31.80
2022-08-23T11:40:52.721Z,32.30
2022-08-23T11:43:41.985Z,32.30
2022-08-23T11:50:26.702Z,31.60
2022-08-23T11:53:18.881Z,31.90
2022-08-23T11:56:04.572Z,31.70
2022-08-23T11:59:09.085Z,31.50
2022-08-23T12:01:39.385Z,31.90
2022-08-23T12:04:30.647Z,32.50
2022-08-23T12:07:03.003Z,32.20
2022-08-23T12:09:29.869Z,32.50
2022-08-23T12:11:56.790Z,31.90
2022-08-23T12:14:47.384Z,31.80
2022-08-23T12:17:18.223Z,32.20
2022-08-23T12:19:51.263Z,32.40
2022-08-23T12:22:21.938Z,32.40
2022-08-23T12:29:54.335Z,32.10
2022-08-23T12:32:34.003Z,31.80
2022-08-23T12:35:04.011Z,31.80
2022-08-23T12:37:37.013Z,31.90
2022-08-23T12:44:30.906Z,31.50
2022-08-23T12:47:20.762Z,32.00
2022-08-23T12:50:15.061Z,32.30
2022-08-23T12:52:42.511Z,32.00
2022-08-23T12:55:18.560Z,32.10
2022-08-23T12:57:55.266Z,32.20
2022-08-23T13:00:31.125Z,32.20
2022-08-23T13:03:14.037Z,31.80
2022-08-23T13:05:52.188Z,31.70
2022-08-23T13:08:35.186Z,32.00
2022-08-23T13:11:07.809Z,32.40
2022-08-23T13:13:38.368Z,32.70
2022-08-23T13:16:43.060Z,32.50
2022-08-23T13:19:25.836Z,32.20
2022-08-23T13:22:14.615Z,32.30
2022-08-23T13:24:43.846Z,31.70
2022-08-23T13:27:21.928Z,31.40
2022-08-23T13:30:08.690Z,31.90
2022-08-23T13:32:44.652Z,32.10
2022-08-23T13:35:35.030Z,32.50
2022-08-23T13:38:08.578Z,32.50
2022-08-23T13:41:04.691Z,32.70
2022-08-23T13:44:05.251Z,32.90
2022-08-23T13:46:34.275Z,32.50
2022-08-23T13:49:09.357Z,32.30
2022-08-23T13:51:42.887Z,32.30
2022-08-23T13:54:15.390Z,32.30
2022-08-23T13:56:51.833Z,32.10
2022-08-23T13:59:26.874Z,32.20
2022-08-23T14:02:01.580Z,32.20
2022-08-23T14:04:28.724Z,32.10
2022-08-23T14:06:55.628Z,31.90
2022-08-23T14:09:22.970Z,31.70
2022-08-23T14:11:58.797Z,32.10
2022-08-23T14:14:28.107Z,31.70
2022-08-23T14:16:59.643Z,31.70
2022-08-23T14:26:50.117Z,32.40
2022-08-23T14:33:37.759Z,32.30
2022-08-23T14:36:06.093Z,32.40
2022-08-23T14:38:33.278Z,32.30
2022-08-23T14:45:18.595Z,32.00
2022-08-23T14:47:45.731Z,32.20
2022-08-23T14:54:37.547Z,31.80
2022-08-23T14:57:05.038Z,32.20
2022-08-23T14:59:32.068Z,32.20
2022-08-23T15:01:59.653Z,31.90
2022-08-23T15:04:28.839Z,32.00
2022-08-23T15:07:19.478Z,32.00
2022-08-23T15:09:54.549Z,32.00
2022-08-23T15:15:13.042Z,32.10
2022-08-23T15:17:52.611Z,32.10
2022-08-23T15:20:21.688Z,31.90
2022-08-23T15:27:08.378Z,31.70
2022-08-23T15:29:35.579Z,31.50
2022-08-23T15:32:02.624Z,31.30
2022-08-23T15:34:33.340Z,31.10
2022-08-23T15:37:02.445Z,31.10
2022-08-23T15:39:29.381Z,31.00
2022-08-23T15:41:56.256Z,31.20
2022-08-23T15:44:23.250Z,31.00
2022-08-23T15:46:50.172Z,30.60
2022-08-23T15:53:39.432Z,30.70
2022-08-23T15:56:27.001Z,30.50
2022-08-23T16:03:20.048Z,30.50
2022-08-23T16:10:15.462Z,30.40
2022-08-23T16:12:42.396Z,30.30
2022-08-23T16:15:09.718Z,30.30
2022-08-23T16:21:51.762Z,30.40
2022-08-23T16:24:19.877Z,30.40
2022-08-23T16:26:52.027Z,30.10
2022-08-23T16:29:20.461Z,30.00
2022-08-23T16:36:11.506Z,30.00
2022-08-23T16:42:57.640Z,29.80
2022-08-23T16:45:25.809Z,29.80
2022-08-23T16:47:53.615Z,29.80
2022-08-23T16:50:20.558Z,29.80
2022-08-23T16:52:47.435Z,29.70
2022-08-23T16:55:14.651Z,29.60
2022-08-23T16:57:41.822Z,29.50
2022-08-23T17:00:14.073Z,29.40
2022-08-23T17:02:42.111Z,29.40
2022-08-23T17:05:13.199Z,29.40
2022-08-23T17:07:40.176Z,29.30
2022-08-23T17:10:09.171Z,29.30
2022-08-23T17:12:39.970Z,29.20
2022-08-23T17:15:09.454Z,29.20
2022-08-23T17:17:36.584Z,29.10
2022-08-23T17:20:06.177Z,29.10
2022-08-23T17:22:33.730Z,28.90
2022-08-23T17:29:20.404Z,28.80
2022-08-23T17:36:07.874Z,28.60
2022-08-23T17:38:35.527Z,28.50
2022-08-23T17:41:02.466Z,28.30
2022-08-23T17:47:41.865Z,28.20
2022-08-23T17:50:09.858Z,28.10
2022-08-23T17:52:36.799Z,27.90
2022-08-23T17:55:04.138Z,27.90
2022-08-23T17:57:32.312Z,27.80
2022-08-23T18:08:43.622Z,27.40
2022-08-23T18:11:10.588Z,27.30
2022-08-23T18:13:37.612Z,27.10
2022-08-23T18:16:05.099Z,27.10
2022-08-23T18:18:32.436Z,26.90
2022-08-23T18:21:04.694Z,26.70
2022-08-23T18:23:31.589Z,26.50
2022-08-23T18:30:23.755Z,26.30
2022-08-23T18:32:50.748Z,26.00
2022-08-23T18:35:18.154Z,25.90
2022-08-23T18:41:58.219Z,25.80
2022-08-23T18:44:25.261Z,25.70
2022-08-23T18:46:52.230Z,25.60
2022-08-23T18:49:19.141Z,25.70
2022-08-23T18:51:46.059Z,25.60
2022-08-23T18:54:13.030Z,25.50
2022-08-23T18:56:40.614Z,25.40
2022-08-23T19:03:31.473Z,25.30
2022-08-23T19:05:58.369Z,25.20
2022-08-23T19:08:25.298Z,25.20
2022-08-23T19:10:52.203Z,25.10
2022-08-23T19:13:19.810Z,25.00
2022-08-23T19:15:46.983Z,25.00
2022-08-23T19:18:14.553Z,25.10
2022-08-23T19:24:59.691Z,24.90
2022-08-23T19:27:26.671Z,24.70
2022-08-23T19:29:53.857Z,24.80
2022-08-23T19:36:51.241Z,24.80
2022-08-23T19:39:28.418Z,24.70
2022-08-23T19:41:55.404Z,24.60
2022-08-23T19:44:23.165Z,24.40
2022-08-23T19:46:50.367Z,24.50
2022-08-23T19:49:17.432Z,24.50
2022-08-23T19:51:44.872Z,24.40
2022-08-23T19:58:37.058Z,24.30
2022-08-23T20:01:04.208Z,24.20
2022-08-23T20:03:31.207Z,24.30
2022-08-23T20:05:58.186Z,24.40
2022-08-23T20:08:26.149Z,24.40
2022-08-23T20:10:53.109Z,24.30
2022-08-23T20:13:23.311Z,24.30
2022-08-23T20:15:54.281Z,24.30
2022-08-23T20:23:00.198Z,24.20
2022-08-23T20:25:29.174Z,24.10
2022-08-23T20:27:56.338Z,24.10
2022-08-23T20:30:23.262Z,24.00
2022-08-23T20:32:50.211Z,24.00
2022-08-23T20:35:17.759Z,24.10
2022-08-23T20:37:44.737Z,23.90
2022-08-23T20:40:11.913Z,23.80
2022-08-23T20:47:00.889Z,23.80
2022-08-23T20:49:29.724Z,23.70
2022-08-23T20:51:56.627Z,23.70
2022-08-23T20:58:36.038Z,23.70
2022-08-23T21:01:05.223Z,23.60
2022-08-23T21:03:37.465Z,23.60
2022-08-23T21:06:07.035Z,23.70
2022-08-23T21:08:34.564Z,23.60
2022-08-23T21:11:03.127Z,23.30
2022-08-23T21:13:30.041Z,23.20
2022-08-23T21:15:57.066Z,23.20
2022-08-23T21:18:24.260Z,23.10
2022-08-23T21:20:52.076Z,23.00
2022-08-23T21:23:19.826Z,23.00
2022-08-23T21:25:53.034Z,22.90
2022-08-23T21:28:20.540Z,22.80
2022-08-23T21:30:47.758Z,22.80
2022-08-23T21:33:15.154Z,22.90
2022-08-23T21:35:42.475Z,22.90
2022-08-23T21:38:09.361Z,22.80
2022-08-23T21:40:36.335Z,23.00
2022-08-23T21:43:04.064Z,22.90
2022-08-23T21:45:31.270Z,22.80
2022-08-23T21:47:59.019Z,22.80
2022-08-23T21:50:28.536Z,22.70
2022-08-23T21:57:08.045Z,22.60
2022-08-23T21:59:53.783Z,22.40
2022-08-23T22:02:20.969Z,22.30
2022-08-23T22:04:47.915Z,22.40
2022-08-23T22:07:14.845Z,22.40
2022-08-23T22:09:41.842Z,22.40
2022-08-23T22:12:08.858Z,22.30
2022-08-23T22:14:36.023Z,22.30
2022-08-23T22:17:03.098Z,22.20
2022-08-23T22:19:30.159Z,22.30
2022-08-23T22:21:57.674Z,22.20
2022-08-23T22:24:26.177Z,22.20
2022-08-23T22:26:53.514Z,22.20
2022-08-23T22:29:20.444Z,22.20
2022-08-23T22:31:48.309Z,22.10
2022-08-23T22:34:15.829Z,22.00
2022-08-23T22:36:42.912Z,22.00
2022-08-23T22:39:10.410Z,21.90
2022-08-23T22:41:38.882Z,22.00
2022-08-23T22:44:06.510Z,22.00
2022-08-23T22:46:35.255Z,22.10
2022-08-23T22:49:02.402Z,22.00
2022-08-23T22:51:32.430Z,22.00
2022-08-23T22:54:03.680Z,21.90
2022-08-23T22:56:36.808Z,21.90
2022-08-23T22:59:04.344Z,21.90
2022-08-23T23:01:34.939Z,21.90
2022-08-23T23:04:04.253Z,21.80
2022-08-23T23:06:31.270Z,21.90
2022-08-23T23:08:58.376Z,21.80
2022-08-23T23:11:26.314Z,21.80
2022-08-23T23:13:53.464Z,21.90
2022-08-23T23:16:24.964Z,21.80
2022-08-23T23:19:11.145Z,21.90
2022-08-23T23:21:43.913Z,21.70
2022-08-23T23:24:14.052Z,21.60
2022-08-23T23:26:41.781Z,21.70
2022-08-23T23:29:11.587Z,21.70
2022-08-23T23:31:39.613Z,21.70
2022-08-23T23:34:06.809Z,21.70
2022-08-23T23:36:34.225Z,21.70
2022-08-23T23:39:03.281Z,21.70
2022-08-23T23:41:31.216Z,21.80
2022-08-23T23:43:58.652Z,21.80
2022-08-23T23:46:26.173Z,21.80
2022-08-23T23:48:53.495Z,21.60
2022-08-23T23:51:23.853Z,21.70
2022-08-23T23:53:51.744Z,21.70
2022-08-23T23:56:20.813Z,21.60
2022-08-23T23:58:48.797Z,21.50
